createdAt,value
2018-07-02T00:01:53.335Z,59.47
2018-07-02T00:04:59.390Z,59.87
2018-07-02T00:08:05.492Z,60.05
2018-07-02T00:11:10.824Z,60.91
2018-07-02T00:14:18.426Z,60.13
2018-07-02T00:17:24.448Z,61.04
2018-07-02T00:20:30.590Z,61.54
2018-07-02T00:23:35.912Z,61.02
2018-07-02T00:26:40.993Z,61.23
2018-07-02T00:29:46.345Z,61.27
2018-07-02T00:32:52.599Z,62.18
2018-07-02T00:35:57.911Z,61.77
2018-07-02T00:39:06.517Z,61.81
2018-07-02T00:42:12.553Z,61.78
2018-07-02T00:45:18.219Z,62.63
2018-07-02T00:48:24.447Z,62.50
2018-07-02T00:51:29.774Z,62.38
2018-07-02T00:54:35.124Z,62.58
2018-07-02T00:57:41.482Z,62.06
2018-07-02T01:00:47.422Z,62.32
2018-07-02T01:03:54.226Z,62.69
2018-07-02T01:06:59.607Z,63.16
2018-07-02T01:10:05.864Z,62.83
2018-07-02T01:13:11.665Z,63.36
2018-07-02T01:16:16.705Z,62.94
2018-07-02T01:19:22.697Z,62.71
2018-07-02T01:22:29.551Z,63.66
2018-07-02T01:25:35.574Z,63.42
2018-07-02T01:28:40.670Z,63.69
2018-07-02T01:31:51.130Z,63.27
2018-07-02T01:34:56.710Z,63.61
2018-07-02T01:38:02.029Z,63.57
2018-07-02T01:41:07.083Z,64.18
2018-07-02T01:44:12.430Z,63.76
2018-07-02T01:47:18.186Z,64.26
2018-07-02T01:50:23.209Z,64.07
2018-07-02T01:53:29.385Z,64.45
2018-07-02T01:56:35.537Z,64.16
2018-07-02T01:59:41.490Z,64.20
2018-07-02T02:02:46.777Z,64.50
2018-07-02T02:05:53.245Z,64.94
2018-07-02T02:08:59.250Z,65.14
2018-07-02T02:12:04.908Z,64.42
2018-07-02T02:15:11.100Z,64.84
2018-07-02T02:18:17.562Z,64.88
2018-07-02T02:21:23.515Z,64.58
2018-07-02T02:24:28.851Z,64.97
2018-07-02T02:27:34.219Z,64.94
2018-07-02T02:30:39.566Z,65.29
2018-07-02T02:33:44.907Z,65.25
2018-07-02T02:36:50.600Z,65.43
2018-07-02T02:39:58.104Z,65.26
2018-07-02T02:43:03.929Z,65.30
2018-07-02T02:46:09.822Z,65.15
2018-07-02T02:49:15.762Z,65.30
2018-07-02T02:52:21.061Z,65.89
2018-07-02T02:55:26.904Z,65.79
2018-07-02T02:58:32.864Z,65.86
2018-07-02T03:01:38.211Z,65.64
2018-07-02T03:04:43.553Z,65.99
2018-07-02T03:07:49.190Z,66.12
2018-07-02T03:10:55.503Z,66.10
2018-07-02T03:14:00.549Z,66.72
2018-07-02T03:17:06.618Z,66.10
2018-07-02T03:20:12.924Z,66.37
2018-07-02T03:23:18.568Z,66.20
2018-07-02T03:26:25.627Z,66.49
2018-07-02T03:29:31.866Z,66.12
2018-07-02T03:32:37.157Z,66.68
2018-07-02T03:35:42.493Z,66.74
2018-07-02T03:38:48.154Z,65.98
2018-07-02T03:41:54.298Z,66.61
2018-07-02T03:45:00.422Z,66.16
2018-07-02T03:48:06.110Z,66.47
2018-07-02T03:51:12.377Z,66.52
2018-07-02T03:54:18.285Z,66.67
2018-07-02T03:57:24.393Z,66.55
2018-07-02T04:00:29.722Z,66.69
2018-07-02T04:03:35.078Z,66.36
2018-07-02T04:06:41.561Z,66.57
2018-07-02T04:09:47.614Z,67.15
2018-07-02T04:13:05.272Z,66.33
2018-07-02T04:16:22.232Z,66.34
2018-07-02T04:19:51.406Z,66.81
2018-07-02T04:23:00.837Z,65.78
2018-07-02T04:26:06.683Z,66.55
2018-07-02T04:29:13.751Z,65.68
2018-07-02T04:32:20.160Z,65.51
2018-07-02T04:35:25.976Z,65.63
2018-07-02T04:38:31.248Z,65.15
2018-07-02T04:41:36.663Z,64.53
2018-07-02T04:44:42.756Z,64.89
2018-07-02T04:47:48.069Z,64.68
2018-07-02T04:50:55.309Z,64.80
2018-07-02T04:54:01.136Z,65.21
2018-07-02T04:57:07.416Z,64.53
2018-07-02T05:00:13.724Z,65.69
2018-07-02T05:03:20.686Z,65.22
2018-07-02T05:06:26.767Z,65.56
2018-07-02T05:09:33.033Z,65.72
2018-07-02T05:12:38.270Z,65.08
2018-07-02T05:15:43.840Z,65.86
2018-07-02T05:18:50.781Z,66.30
2018-07-02T05:21:56.231Z,66.56
2018-07-02T05:25:01.361Z,66.54
2018-07-02T05:28:06.448Z,66.44
2018-07-02T05:31:11.892Z,66.41
2018-07-02T05:34:17.531Z,67.03
2018-07-02T05:37:23.698Z,66.67
2018-07-02T05:40:29.756Z,65.27
2018-07-02T05:43:35.477Z,64.94
2018-07-02T05:46:40.570Z,64.41
2018-07-02T05:49:45.652Z,64.30
2018-07-02T05:52:50.735Z,64.58
2018-07-02T05:55:55.540Z,63.70
2018-07-02T05:59:01.331Z,64.23
2018-07-02T06:02:06.445Z,63.77
2018-07-02T06:05:11.278Z,63.92
2018-07-02T06:08:16.090Z,63.66
2018-07-02T06:11:21.508Z,63.71
2018-07-02T06:14:27.957Z,63.47
2018-07-02T06:17:34.033Z,63.19
2018-07-02T06:20:39.992Z,62.90
2018-07-02T06:23:45.355Z,63.07
2018-07-02T06:26:50.458Z,63.05
2018-07-02T06:29:55.581Z,62.95
2018-07-02T06:33:02.007Z,62.80
2018-07-02T06:36:07.081Z,62.86
2018-07-02T06:39:12.425Z,62.39
2018-07-02T06:42:17.536Z,62.60
2018-07-02T06:45:23.650Z,62.01
2018-07-02T06:48:29.153Z,61.63
2018-07-02T06:51:36.362Z,61.62
2018-07-02T06:54:41.877Z,60.82
2018-07-02T06:57:46.990Z,61.20
2018-07-02T07:00:51.893Z,60.88
2018-07-02T07:03:57.148Z,60.54
2018-07-02T07:07:03.016Z,60.46
2018-07-02T07:10:09.301Z,60.11
2018-07-02T07:13:15.557Z,60.63
2018-07-02T07:16:21.090Z,60.16
2018-07-02T07:19:27.676Z,60.05
2018-07-02T07:22:33.190Z,60.55
2018-07-02T07:25:38.350Z,60.41
2018-07-02T07:28:43.945Z,60.43
2018-07-02T07:31:49.025Z,60.29
2018-07-02T07:34:54.616Z,60.62
2018-07-02T07:38:00.071Z,59.96
2018-07-02T07:41:05.517Z,59.85
2018-07-02T07:44:10.638Z,60.05
2018-07-02T07:47:16.676Z,59.38
2018-07-02T07:50:22.582Z,58.90
2018-07-02T07:53:28.042Z,58.76
2018-07-02T07:56:34.028Z,59.45
2018-07-02T07:59:39.121Z,58.86
2018-07-02T08:02:44.660Z,59.49
2018-07-02T08:05:49.719Z,59.43
2018-07-02T08:08:55.206Z,58.74
2018-07-02T08:12:01.536Z,59.24
2018-07-02T08:15:08.657Z,57.86
2018-07-02T08:18:14.713Z,58.35
2018-07-02T08:21:20.857Z,58.06
2018-07-02T08:24:26.584Z,58.49
2018-07-02T08:27:32.903Z,57.78
2018-07-02T08:30:38.633Z,57.82
2018-07-02T08:33:43.989Z,58.03
2018-07-02T08:36:49.886Z,58.06
2018-07-02T08:39:55.989Z,57.11
2018-07-02T08:43:01.877Z,57.38
2018-07-02T08:46:08.089Z,57.27
2018-07-02T08:49:13.474Z,57.17
2018-07-02T08:52:19.557Z,57.42
2018-07-02T08:55:25.379Z,56.38
2018-07-02T08:58:30.482Z,55.11
2018-07-02T09:01:36.553Z,55.94
2018-07-02T09:04:42.382Z,54.24
2018-07-02T09:07:47.464Z,54.43
2018-07-02T09:10:53.602Z,54.33
2018-07-02T09:13:58.721Z,54.70
2018-07-02T09:17:04.606Z,55.21
2018-07-02T09:20:09.715Z,55.20
2018-07-02T09:23:15.271Z,54.91
2018-07-02T09:26:20.373Z,54.51
2018-07-02T09:29:25.788Z,54.16
2018-07-02T09:32:31.265Z,53.33
2018-07-02T09:35:37.681Z,53.06
2018-07-02T09:38:44.141Z,52.62
2018-07-02T09:41:49.852Z,52.26
2018-07-02T09:44:56.107Z,52.16
2018-07-02T09:48:01.227Z,52.16
2018-07-02T09:51:06.592Z,50.72
2018-07-02T09:54:11.698Z,50.27
2018-07-02T09:57:17.070Z,50.23
2018-07-02T10:00:22.182Z,50.84
2018-07-02T10:03:27.306Z,49.27
2018-07-02T10:06:32.763Z,48.68
2018-07-02T10:09:38.705Z,47.01
2018-07-02T10:12:43.794Z,46.24
2018-07-02T10:15:48.626Z,46.50
2018-07-02T10:18:54.731Z,46.92
2018-07-02T10:21:59.831Z,47.59
2018-07-02T10:25:05.553Z,48.10
2018-07-02T10:28:11.461Z,47.40
2018-07-02T10:31:17.710Z,47.04
2018-07-02T10:34:23.688Z,46.89
2018-07-02T10:37:29.713Z,46.84
2018-07-02T10:40:35.918Z,46.78
2018-07-02T10:43:40.981Z,47.01
2018-07-02T10:46:46.415Z,48.77
2018-07-02T10:49:52.961Z,46.99
2018-07-02T10:52:59.049Z,48.05
2018-07-02T10:56:04.214Z,47.61
2018-07-02T10:59:09.646Z,47.35
2018-07-02T11:02:15.104Z,46.95
2018-07-02T11:05:21.957Z,46.21
2018-07-02T11:08:27.034Z,47.04
2018-07-02T11:11:32.480Z,46.81
2018-07-02T11:14:38.079Z,47.62
2018-07-02T11:17:43.865Z,46.94
2018-07-02T11:20:48.998Z,46.68
2018-07-02T11:23:54.122Z,46.85
2018-07-02T11:27:00.386Z,47.08
2018-07-02T11:30:06.368Z,45.95
2018-07-02T11:33:12.452Z,45.78
2018-07-02T11:36:18.316Z,46.01
2018-07-02T11:39:24.362Z,46.14
2018-07-02T11:42:30.705Z,45.67
2018-07-02T11:45:36.451Z,46.69
2018-07-02T11:48:41.614Z,45.57
2018-07-02T11:51:46.693Z,44.80
2018-07-02T11:54:51.516Z,45.92
2018-07-02T11:57:57.367Z,45.92
2018-07-02T12:01:03.164Z,46.10
2018-07-02T12:04:08.598Z,44.00
2018-07-02T12:07:13.825Z,45.14
2018-07-02T12:10:18.931Z,45.43
2018-07-02T12:13:23.925Z,45.64
2018-07-02T12:16:29.762Z,45.46
2018-07-02T12:19:35.185Z,45.98
2018-07-02T12:22:40.336Z,45.44
2018-07-02T12:25:45.452Z,45.32
2018-07-02T12:28:50.518Z,44.95
2018-07-02T12:31:55.616Z,43.84
2018-07-02T12:35:01.047Z,44.29
2018-07-02T12:38:06.110Z,43.41
2018-07-02T12:41:11.648Z,42.17
2018-07-02T12:44:17.649Z,43.79
2018-07-02T12:47:23.173Z,43.85
2018-07-02T12:50:28.626Z,44.13
2018-07-02T12:53:34.724Z,45.29
2018-07-02T12:56:39.850Z,44.62
2018-07-02T12:59:46.851Z,45.57
2018-07-02T13:02:52.349Z,44.52
2018-07-02T13:05:57.442Z,44.81
2018-07-02T13:09:06.013Z,43.62
2018-07-02T13:12:11.120Z,44.97
2018-07-02T13:15:16.616Z,44.70
2018-07-02T13:18:21.460Z,43.78
2018-07-02T13:21:27.357Z,42.13
2018-07-02T13:24:32.814Z,42.05
2018-07-02T13:27:39.217Z,40.94
2018-07-02T13:30:45.128Z,39.72
2018-07-02T13:33:50.560Z,40.45
2018-07-02T13:36:56.507Z,40.53
2018-07-02T13:40:01.592Z,40.55
2018-07-02T13:43:08.050Z,40.66
2018-07-02T13:46:13.920Z,40.92
2018-07-02T13:49:18.757Z,42.93
2018-07-02T13:52:24.248Z,42.64
2018-07-02T13:55:30.312Z,42.26
2018-07-02T13:58:35.478Z,42.93
2018-07-02T14:01:41.569Z,40.62
2018-07-02T14:04:46.905Z,40.83
2018-07-02T14:07:51.998Z,40.91
2018-07-02T14:10:57.400Z,39.14
2018-07-02T14:14:03.980Z,40.78
2018-07-02T14:17:09.062Z,40.41
2018-07-02T14:20:14.597Z,39.43
2018-07-02T14:23:20.715Z,40.11
2018-07-02T14:26:26.155Z,40.35
2018-07-02T14:29:30.944Z,39.17
2018-07-02T14:32:35.845Z,36.71
2018-07-02T14:35:42.248Z,38.51
2018-07-02T14:38:47.783Z,39.66
2018-07-02T14:41:53.463Z,38.56
2018-07-02T14:44:59.499Z,39.47
2018-07-02T14:48:05.500Z,39.79
2018-07-02T14:51:10.591Z,38.33
2018-07-02T14:54:15.684Z,37.95
2018-07-02T14:57:21.977Z,38.30
2018-07-02T15:00:27.437Z,38.47
2018-07-02T15:03:32.534Z,38.51
2018-07-02T15:06:37.646Z,38.00
2018-07-02T15:09:43.728Z,39.96
2018-07-02T15:12:49.822Z,38.59
2018-07-02T15:15:55.509Z,37.27
2018-07-02T15:19:01.269Z,38.49
2018-07-02T15:22:06.590Z,40.04
2018-07-02T15:25:12.792Z,37.71
2018-07-02T15:28:18.818Z,38.08
2018-07-02T15:31:24.241Z,37.62
2018-07-02T15:34:30.571Z,37.17
2018-07-02T15:37:37.013Z,37.24
2018-07-02T15:40:43.159Z,38.52
2018-07-02T15:43:49.259Z,38.18
2018-07-02T15:46:55.407Z,39.02
2018-07-02T15:50:01.765Z,37.95
2018-07-02T15:53:07.943Z,36.21
2018-07-02T15:56:14.562Z,37.39
2018-07-02T15:59:20.009Z,37.30
2018-07-02T16:02:25.872Z,37.78
2018-07-02T16:05:31.799Z,36.87
2018-07-02T16:08:37.437Z,37.36
2018-07-02T16:11:43.861Z,36.77
2018-07-02T16:14:49.614Z,37.46
2018-07-02T16:17:55.278Z,36.29
2018-07-02T16:21:01.075Z,36.54
2018-07-02T16:24:07.956Z,35.60
2018-07-02T16:27:13.143Z,36.23
2018-07-02T16:30:18.579Z,37.95
2018-07-02T16:33:24.460Z,36.69
2018-07-02T16:36:29.801Z,37.48
2018-07-02T16:39:35.495Z,34.74
2018-07-02T16:42:41.609Z,36.26
2018-07-02T16:45:47.610Z,36.22
2018-07-02T16:48:54.449Z,38.02
2018-07-02T16:51:59.565Z,36.36
2018-07-02T16:55:04.718Z,35.72
2018-07-02T16:58:09.941Z,35.73
2018-07-02T17:01:15.429Z,35.65
2018-07-02T17:04:20.521Z,35.12
2018-07-02T17:07:25.637Z,35.67
2018-07-02T17:10:30.450Z,35.39
2018-07-02T17:13:36.214Z,36.33
2018-07-02T17:16:41.317Z,35.12
2018-07-02T17:19:46.946Z,36.27
2018-07-02T17:22:52.209Z,34.98
2018-07-02T17:25:57.368Z,36.87
2018-07-02T17:29:03.016Z,36.80
2018-07-02T17:32:08.812Z,37.84
2018-07-02T17:35:14.181Z,38.13
2018-07-02T17:38:19.293Z,37.63
2018-07-02T17:41:24.448Z,37.77
2018-07-02T17:44:29.328Z,37.15
2018-07-02T17:47:35.000Z,38.25
2018-07-02T17:50:40.282Z,39.36
2018-07-02T17:53:46.220Z,39.08
2018-07-02T17:56:51.593Z,38.83
2018-07-02T17:59:57.085Z,38.38
2018-07-02T18:03:03.053Z,39.12
2018-07-02T18:06:08.272Z,38.97
2018-07-02T18:09:14.710Z,39.34
2018-07-02T18:12:21.129Z,39.88
2018-07-02T18:15:26.629Z,41.39
2018-07-02T18:18:32.764Z,41.21
2018-07-02T18:21:38.610Z,41.70
2018-07-02T18:24:44.555Z,41.44
2018-07-02T18:27:50.605Z,41.50
2018-07-02T18:30:56.636Z,41.87
2018-07-02T18:34:02.744Z,42.17
2018-07-02T18:37:08.991Z,41.89
2018-07-02T18:40:14.564Z,41.86
2018-07-02T18:43:20.548Z,42.22
2018-07-02T18:46:32.443Z,42.45
2018-07-02T18:49:37.799Z,42.96
2018-07-02T18:52:43.009Z,43.04
2018-07-02T18:55:48.167Z,43.06
2018-07-02T18:58:53.305Z,43.79
2018-07-02T19:01:58.572Z,43.66
2018-07-02T19:05:03.908Z,44.06
2018-07-02T19:08:08.742Z,43.91
2018-07-02T19:11:14.270Z,43.96
2018-07-02T19:14:19.161Z,43.59
2018-07-02T19:17:24.672Z,44.25
2018-07-02T19:20:30.621Z,43.54
2018-07-02T19:23:37.425Z,44.30
2018-07-02T19:26:43.019Z,43.83
2018-07-02T19:29:48.507Z,43.64
2018-07-02T19:32:54.709Z,43.88
2018-07-02T19:36:00.349Z,44.02
2018-07-02T19:39:10.426Z,43.58
2018-07-02T19:42:16.397Z,44.80
2018-07-02T19:45:22.528Z,44.96
2018-07-02T19:48:27.936Z,45.20
2018-07-02T19:51:34.384Z,45.05
2018-07-02T19:54:39.834Z,44.47
2018-07-02T19:57:45.004Z,45.51
2018-07-02T20:00:50.477Z,45.28
2018-07-02T20:03:56.490Z,45.11
2018-07-02T20:07:01.741Z,45.34
2018-07-02T20:10:08.019Z,46.21
2018-07-02T20:13:13.753Z,46.35
2018-07-02T20:16:19.030Z,46.47
2018-07-02T20:19:25.085Z,45.91
2018-07-02T20:22:31.131Z,46.81
2018-07-02T20:25:37.135Z,46.77
2018-07-02T20:28:43.249Z,46.93
2018-07-02T20:31:48.718Z,47.37
2018-07-02T20:34:54.927Z,47.34
2018-07-02T20:38:01.365Z,47.42
2018-07-02T20:41:07.820Z,48.18
2018-07-02T20:44:13.170Z,48.08
2018-07-02T20:47:19.233Z,48.10
2018-07-02T20:50:25.378Z,48.39
2018-07-02T20:53:31.272Z,48.93
2018-07-02T20:56:36.909Z,49.25
2018-07-02T20:59:44.280Z,48.92
2018-07-02T21:02:49.993Z,49.70
2018-07-02T21:05:57.029Z,50.01
2018-07-02T21:09:01.990Z,49.99
2018-07-02T21:12:07.816Z,50.44
2018-07-02T21:15:13.611Z,49.83
2018-07-02T21:18:18.733Z,50.58
2018-07-02T21:21:24.065Z,50.03
2018-07-02T21:24:29.501Z,50.61
2018-07-02T21:27:34.316Z,51.14
2018-07-02T21:30:39.845Z,51.59
2018-07-02T21:33:45.014Z,50.16
2018-07-02T21:36:50.829Z,51.74
2018-07-02T21:39:56.591Z,51.32
2018-07-02T21:43:02.281Z,50.48
2018-07-02T21:46:07.607Z,50.97
2018-07-02T21:49:13.011Z,51.65
2018-07-02T21:52:24.954Z,52.00
2018-07-02T21:55:30.191Z,51.99
2018-07-02T21:58:36.331Z,51.20
2018-07-02T22:01:42.504Z,51.93
2018-07-02T22:04:47.698Z,52.40
2018-07-02T22:07:53.919Z,51.71
2018-07-02T22:11:00.208Z,52.48
2018-07-02T22:14:06.504Z,53.05
2018-07-02T22:17:12.252Z,52.95
2018-07-02T22:20:18.788Z,52.74
2018-07-02T22:23:24.969Z,54.10
2018-07-02T22:26:32.521Z,53.99
2018-07-02T22:29:38.434Z,53.56
2018-07-02T22:32:43.874Z,54.20
2018-07-02T22:35:48.966Z,54.56
2018-07-02T22:38:54.061Z,54.45
2018-07-02T22:41:59.990Z,54.57
2018-07-02T22:45:05.336Z,55.21
2018-07-02T22:48:10.786Z,54.75
2018-07-02T22:51:16.102Z,54.73
2018-07-02T22:54:21.225Z,55.56
2018-07-02T22:57:27.333Z,55.82
2018-07-02T23:00:32.836Z,55.68
2018-07-02T23:03:37.665Z,56.12
2018-07-02T23:06:44.420Z,55.81
2018-07-02T23:09:50.980Z,56.82
2018-07-02T23:12:56.254Z,56.66
2018-07-02T23:16:01.381Z,55.83
2018-07-02T23:19:06.486Z,56.31
2018-07-02T23:22:12.854Z,56.29
2018-07-02T23:25:18.500Z,56.77
2018-07-02T23:28:24.384Z,56.71
2018-07-02T23:31:30.639Z,57.20
2018-07-02T23:34:36.532Z,57.23
2018-07-02T23:37:41.932Z,56.79
2018-07-02T23:40:48.253Z,57.92
2018-07-02T23:43:54.367Z,58.19
2018-07-02T23:47:00.070Z,57.72
2018-07-02T23:50:06.403Z,58.61
2018-07-02T23:53:12.260Z,58.82
2018-07-02T23:56:18.503Z,58.40
2018-07-02T23:59:24.598Z,58.40
